sensor_id;sensor_type;location;lat;lon;timestamp;P1;durP1;ratioP1;P2;durP2;ratioP2
62832;SDS011;48891;49.220;6.920;2023-04-03T00:01:02;33.20;;;22.90;;
62832;SDS011;48891;49.220;6.920;2023-04-03T00:03:27;30.83;;;20.92;;
62832;SDS011;48891;49.220;6.920;2023-04-03T00:05:52;32.45;;;22.30;;
62832;SDS011;48891;49.220;6.920;2023-04-03T00:08:18;31.00;;;21.05;;
62832;SDS011;48891;49.220;6.920;2023-04-03T00:10:43;31.80;;;21.83;;
62832;SDS011;48891;49.220;6.920;2023-04-03T00:13:08;32.15;;;21.75;;
62832;SDS011;48891;49.220;6.920;2023-04-03T00:15:34;30.77;;;21.65;;
62832;SDS011;48891;49.220;6.920;2023-04-03T00:17:59;32.67;;;20.98;;
62832;SDS011;48891;49.220;6.920;2023-04-03T00:20:25;33.58;;;21.63;;
62832;SDS011;48891;49.220;6.920;2023-04-03T00:22:50;29.27;;;20.40;;
62832;SDS011;48891;49.220;6.920;2023-04-03T00:25:15;30.35;;;20.83;;
62832;SDS011;48891;49.220;6.920;2023-04-03T00:27:40;28.88;;;20.30;;
62832;SDS011;48891;49.220;6.920;2023-04-03T00:30:06;27.20;;;19.05;;
62832;SDS011;48891;49.220;6.920;2023-04-03T00:32:31;29.63;;;20.05;;
62832;SDS011;48891;49.220;6.920;2023-04-03T00:34:56;30.85;;;19.83;;
62832;SDS011;48891;49.220;6.920;2023-04-03T00:37:21;29.20;;;19.45;;
62832;SDS011;48891;49.220;6.920;2023-04-03T00:39:47;26.20;;;18.40;;
62832;SDS011;48891;49.220;6.920;2023-04-03T00:42:12;28.98;;;19.90;;
62832;SDS011;48891;49.220;6.920;2023-04-03T00:47:02;27.55;;;18.70;;
62832;SDS011;48891;49.220;6.920;2023-04-03T00:49:28;28.15;;;19.02;;
62832;SDS011;48891;49.220;6.920;2023-04-03T00:51:54;26.85;;;18.17;;
62832;SDS011;48891;49.220;6.920;2023-04-03T00:54:20;26.90;;;18.25;;
62832;SDS011;48891;49.220;6.920;2023-04-03T00:56:45;25.00;;;17.60;;
62832;SDS011;48891;49.220;6.920;2023-04-03T00:59:18;27.53;;;18.13;;
62832;SDS011;48891;49.220;6.920;2023-04-03T01:01:44;26.50;;;18.13;;
62832;SDS011;48891;49.220;6.920;2023-04-03T01:06:53;23.52;;;16.58;;
62832;SDS011;48891;49.220;6.920;2023-04-03T01:09:18;23.77;;;17.15;;
62832;SDS011;48891;49.220;6.920;2023-04-03T01:11:43;23.63;;;16.27;;
62832;SDS011;48891;49.220;6.920;2023-04-03T01:14:08;24.30;;;15.95;;
62832;SDS011;48891;49.220;6.920;2023-04-03T01:16:33;23.77;;;16.52;;
62832;SDS011;48891;49.220;6.920;2023-04-03T01:18:59;23.52;;;16.75;;
62832;SDS011;48891;49.220;6.920;2023-04-03T01:21:51;22.42;;;15.77;;
62832;SDS011;48891;49.220;6.920;2023-04-03T01:26:44;22.70;;;16.08;;
62832;SDS011;48891;49.220;6.920;2023-04-03T01:29:09;20.33;;;14.80;;
62832;SDS011;48891;49.220;6.920;2023-04-03T01:33:59;23.80;;;15.82;;
62832;SDS011;48891;49.220;6.920;2023-04-03T01:36:25;18.98;;;14.05;;
62832;SDS011;48891;49.220;6.920;2023-04-03T01:38:51;23.73;;;16.02;;
62832;SDS011;48891;49.220;6.920;2023-04-03T01:41:17;23.67;;;15.43;;
62832;SDS011;48891;49.220;6.920;2023-04-03T01:43:42;21.25;;;14.77;;
62832;SDS011;48891;49.220;6.920;2023-04-03T01:46:07;20.63;;;13.98;;
62832;SDS011;48891;49.220;6.920;2023-04-03T01:48:33;21.42;;;14.30;;
62832;SDS011;48891;49.220;6.920;2023-04-03T01:50:58;21.58;;;14.75;;
62832;SDS011;48891;49.220;6.920;2023-04-03T01:53:23;20.80;;;15.13;;
62832;SDS011;48891;49.220;6.920;2023-04-03T01:55:48;20.92;;;14.68;;
62832;SDS011;48891;49.220;6.920;2023-04-03T01:58:13;19.65;;;13.95;;
62832;SDS011;48891;49.220;6.920;2023-04-03T02:00:39;21.35;;;13.98;;
62832;SDS011;48891;49.220;6.920;2023-04-03T02:03:04;20.20;;;13.55;;
62832;SDS011;48891;49.220;6.920;2023-04-03T02:05:29;19.23;;;13.93;;
62832;SDS011;48891;49.220;6.920;2023-04-03T02:07:54;19.92;;;13.98;;
62832;SDS011;48891;49.220;6.920;2023-04-03T02:10:19;19.50;;;13.27;;
62832;SDS011;48891;49.220;6.920;2023-04-03T02:12:44;19.42;;;13.95;;
62832;SDS011;48891;49.220;6.920;2023-04-03T02:15:10;17.00;;;12.53;;
62832;SDS011;48891;49.220;6.920;2023-04-03T02:17:35;18.13;;;12.70;;
62832;SDS011;48891;49.220;6.920;2023-04-03T02:20:00;19.83;;;13.27;;
62832;SDS011;48891;49.220;6.920;2023-04-03T02:22:25;19.35;;;13.00;;
62832;SDS011;48891;49.220;6.920;2023-04-03T02:24:51;18.77;;;12.57;;
62832;SDS011;48891;49.220;6.920;2023-04-03T02:27:16;18.77;;;12.73;;
62832;SDS011;48891;49.220;6.920;2023-04-03T02:29:41;16.80;;;11.55;;
62832;SDS011;48891;49.220;6.920;2023-04-03T02:32:06;18.03;;;12.53;;
62832;SDS011;48891;49.220;6.920;2023-04-03T02:34:31;17.35;;;12.00;;
62832;SDS011;48891;49.220;6.920;2023-04-03T02:36:56;16.02;;;11.25;;
62832;SDS011;48891;49.220;6.920;2023-04-03T02:39:21;17.00;;;11.10;;
62832;SDS011;48891;49.220;6.920;2023-04-03T02:41:47;16.40;;;11.25;;
62832;SDS011;48891;49.220;6.920;2023-04-03T02:44:12;16.23;;;11.18;;
62832;SDS011;48891;49.220;6.920;2023-04-03T02:46:37;17.33;;;12.20;;
62832;SDS011;48891;49.220;6.920;2023-04-03T02:49:02;17.37;;;11.27;;
62832;SDS011;48891;49.220;6.920;2023-04-03T02:51:27;16.50;;;11.20;;
62832;SDS011;48891;49.220;6.920;2023-04-03T02:53:53;15.60;;;10.88;;
62832;SDS011;48891;49.220;6.920;2023-04-03T02:56:18;17.10;;;11.65;;
62832;SDS011;48891;49.220;6.920;2023-04-03T02:58:43;16.08;;;11.10;;
62832;SDS011;48891;49.220;6.920;2023-04-03T03:01:08;15.73;;;11.27;;
62832;SDS011;48891;49.220;6.920;2023-04-03T03:03:34;13.43;;;9.75;;
62832;SDS011;48891;49.220;6.920;2023-04-03T03:06:12;16.58;;;10.73;;
62832;SDS011;48891;49.220;6.920;2023-04-03T03:08:38;14.02;;;10.23;;
62832;SDS011;48891;49.220;6.920;2023-04-03T03:11:04;16.23;;;10.77;;
62832;SDS011;48891;49.220;6.920;2023-04-03T03:13:29;15.25;;;10.48;;
62832;SDS011;48891;49.220;6.920;2023-04-03T03:15:54;14.77;;;10.30;;
62832;SDS011;48891;49.220;6.920;2023-04-03T03:18:19;13.60;;;9.73;;
62832;SDS011;48891;49.220;6.920;2023-04-03T03:20:45;14.23;;;10.02;;
62832;SDS011;48891;49.220;6.920;2023-04-03T03:23:10;14.25;;;9.98;;
62832;SDS011;48891;49.220;6.920;2023-04-03T03:25:38;14.55;;;10.18;;
62832;SDS011;48891;49.220;6.920;2023-04-03T03:28:04;14.77;;;9.90;;
62832;SDS011;48891;49.220;6.920;2023-04-03T03:30:29;13.85;;;9.90;;
62832;SDS011;48891;49.220;6.920;2023-04-03T03:32:54;12.45;;;9.38;;
62832;SDS011;48891;49.220;6.920;2023-04-03T03:35:19;13.25;;;9.25;;
62832;SDS011;48891;49.220;6.920;2023-04-03T03:37:44;14.85;;;9.55;;
62832;SDS011;48891;49.220;6.920;2023-04-03T03:40:09;13.18;;;9.10;;
62832;SDS011;48891;49.220;6.920;2023-04-03T03:42:35;14.45;;;9.05;;
62832;SDS011;48891;49.220;6.920;2023-04-03T03:45:00;14.00;;;9.48;;
62832;SDS011;48891;49.220;6.920;2023-04-03T03:47:25;13.63;;;9.07;;
62832;SDS011;48891;49.220;6.920;2023-04-03T03:49:50;11.73;;;8.65;;
62832;SDS011;48891;49.220;6.920;2023-04-03T03:52:15;12.98;;;9.30;;
62832;SDS011;48891;49.220;6.920;2023-04-03T03:54:40;13.15;;;8.52;;
62832;SDS011;48891;49.220;6.920;2023-04-03T03:57:05;12.70;;;8.90;;
62832;SDS011;48891;49.220;6.920;2023-04-03T03:59:30;13.45;;;9.10;;
62832;SDS011;48891;49.220;6.920;2023-04-03T04:01:56;12.73;;;9.07;;
62832;SDS011;48891;49.220;6.920;2023-04-03T04:04:21;12.60;;;8.27;;
62832;SDS011;48891;49.220;6.920;2023-04-03T04:06:46;13.80;;;9.03;;
62832;SDS011;48891;49.220;6.920;2023-04-03T04:09:11;11.63;;;8.15;;
62832;SDS011;48891;49.220;6.920;2023-04-03T04:11:36;12.98;;;8.45;;
62832;SDS011;48891;49.220;6.920;2023-04-03T04:14:01;11.77;;;8.55;;
62832;SDS011;48891;49.220;6.920;2023-04-03T04:16:26;11.68;;;8.43;;
62832;SDS011;48891;49.220;6.920;2023-04-03T04:18:51;12.90;;;8.75;;
62832;SDS011;48891;49.220;6.920;2023-04-03T04:21:17;11.00;;;7.53;;
62832;SDS011;48891;49.220;6.920;2023-04-03T04:23:42;11.07;;;8.15;;
62832;SDS011;48891;49.220;6.920;2023-04-03T04:26:07;10.27;;;7.72;;
62832;SDS011;48891;49.220;6.920;2023-04-03T04:28:32;12.23;;;7.50;;
62832;SDS011;48891;49.220;6.920;2023-04-03T04:30:57;11.73;;;7.65;;
62832;SDS011;48891;49.220;6.920;2023-04-03T04:33:22;11.40;;;7.20;;
62832;SDS011;48891;49.220;6.920;2023-04-03T04:35:47;10.98;;;7.50;;
62832;SDS011;48891;49.220;6.920;2023-04-03T04:38:13;12.30;;;7.95;;
62832;SDS011;48891;49.220;6.920;2023-04-03T04:40:38;10.40;;;7.38;;
62832;SDS011;48891;49.220;6.920;2023-04-03T04:43:03;10.18;;;6.95;;
62832;SDS011;48891;49.220;6.920;2023-04-03T04:45:28;10.48;;;7.03;;
62832;SDS011;48891;49.220;6.920;2023-04-03T04:47:55;10.45;;;7.07;;
62832;SDS011;48891;49.220;6.920;2023-04-03T04:50:20;12.10;;;7.93;;
62832;SDS011;48891;49.220;6.920;2023-04-03T04:52:45;10.52;;;7.03;;
62832;SDS011;48891;49.220;6.920;2023-04-03T04:55:10;9.40;;;6.47;;
62832;SDS011;48891;49.220;6.920;2023-04-03T04:57:35;10.15;;;6.38;;
62832;SDS011;48891;49.220;6.920;2023-04-03T05:00:00;9.68;;;6.65;;
62832;SDS011;48891;49.220;6.920;2023-04-03T05:02:25;10.00;;;6.80;;
62832;SDS011;48891;49.220;6.920;2023-04-03T05:04:51;9.32;;;6.95;;
62832;SDS011;48891;49.220;6.920;2023-04-03T05:07:16;10.02;;;6.70;;
62832;SDS011;48891;49.220;6.920;2023-04-03T05:09:41;8.90;;;6.70;;
62832;SDS011;48891;49.220;6.920;2023-04-03T05:12:06;10.37;;;7.17;;
62832;SDS011;48891;49.220;6.920;2023-04-03T05:14:31;9.65;;;6.75;;
62832;SDS011;48891;49.220;6.920;2023-04-03T05:16:56;9.40;;;6.60;;
62832;SDS011;48891;49.220;6.920;2023-04-03T05:19:21;8.55;;;6.20;;
62832;SDS011;48891;49.220;6.920;2023-04-03T05:21:47;12.13;;;6.80;;
62832;SDS011;48891;49.220;6.920;2023-04-03T05:24:12;9.68;;;6.20;;
62832;SDS011;48891;49.220;6.920;2023-04-03T05:26:37;9.20;;;6.38;;
62832;SDS011;48891;49.220;6.920;2023-04-03T05:29:02;10.20;;;6.97;;
62832;SDS011;48891;49.220;6.920;2023-04-03T05:31:28;10.80;;;6.65;;
62832;SDS011;48891;49.220;6.920;2023-04-03T05:33:53;9.13;;;6.47;;
62832;SDS011;48891;49.220;6.920;2023-04-03T05:36:18;9.02;;;6.30;;
62832;SDS011;48891;49.220;6.920;2023-04-03T05:38:43;9.75;;;6.13;;
62832;SDS011;48891;49.220;6.920;2023-04-03T05:41:08;7.85;;;6.05;;
62832;SDS011;48891;49.220;6.920;2023-04-03T05:43:33;9.37;;;6.43;;
62832;SDS011;48891;49.220;6.920;2023-04-03T05:45:59;9.40;;;6.20;;
62832;SDS011;48891;49.220;6.920;2023-04-03T05:48:24;8.83;;;6.37;;
62832;SDS011;48891;49.220;6.920;2023-04-03T05:50:49;9.70;;;6.15;;
62832;SDS011;48891;49.220;6.920;2023-04-03T05:53:15;9.38;;;6.30;;
62832;SDS011;48891;49.220;6.920;2023-04-03T05:58:08;8.57;;;5.82;;
62832;SDS011;48891;49.220;6.920;2023-04-03T06:00:33;10.32;;;6.22;;
62832;SDS011;48891;49.220;6.920;2023-04-03T06:02:58;8.32;;;6.20;;
62832;SDS011;48891;49.220;6.920;2023-04-03T06:05:23;9.82;;;6.05;;
62832;SDS011;48891;49.220;6.920;2023-04-03T06:07:48;8.32;;;6.00;;
62832;SDS011;48891;49.220;6.920;2023-04-03T06:10:13;9.07;;;6.10;;
62832;SDS011;48891;49.220;6.920;2023-04-03T06:12:38;8.70;;;5.80;;
62832;SDS011;48891;49.220;6.920;2023-04-03T06:15:04;9.03;;;5.57;;
62832;SDS011;48891;49.220;6.920;2023-04-03T06:17:29;8.27;;;5.97;;
62832;SDS011;48891;49.220;6.920;2023-04-03T06:19:54;8.60;;;6.15;;
62832;SDS011;48891;49.220;6.920;2023-04-03T06:22:19;7.78;;;5.70;;
62832;SDS011;48891;49.220;6.920;2023-04-03T06:24:44;8.23;;;5.30;;
62832;SDS011;48891;49.220;6.920;2023-04-03T06:27:10;8.07;;;5.40;;
62832;SDS011;48891;49.220;6.920;2023-04-03T06:29:35;7.45;;;5.40;;
62832;SDS011;48891;49.220;6.920;2023-04-03T06:32:00;9.20;;;6.00;;
62832;SDS011;48891;49.220;6.920;2023-04-03T06:34:25;9.07;;;6.00;;
62832;SDS011;48891;49.220;6.920;2023-04-03T06:36:51;8.50;;;5.93;;
62832;SDS011;48891;49.220;6.920;2023-04-03T06:39:17;9.35;;;5.63;;
62832;SDS011;48891;49.220;6.920;2023-04-03T06:41:43;9.10;;;5.68;;
62832;SDS011;48891;49.220;6.920;2023-04-03T06:44:08;7.68;;;5.88;;
62832;SDS011;48891;49.220;6.920;2023-04-03T06:46:33;7.38;;;4.90;;
62832;SDS011;48891;49.220;6.920;2023-04-03T06:48:58;7.95;;;5.75;;
62832;SDS011;48891;49.220;6.920;2023-04-03T06:51:27;8.70;;;6.03;;
62832;SDS011;48891;49.220;6.920;2023-04-03T06:53:53;9.57;;;5.68;;
62832;SDS011;48891;49.220;6.920;2023-04-03T06:56:18;7.90;;;5.50;;
62832;SDS011;48891;49.220;6.920;2023-04-03T06:58:43;8.70;;;5.80;;
62832;SDS011;48891;49.220;6.920;2023-04-03T07:01:09;9.43;;;6.00;;
62832;SDS011;48891;49.220;6.920;2023-04-03T07:03:34;8.40;;;5.75;;
62832;SDS011;48891;49.220;6.920;2023-04-03T07:05:59;7.30;;;4.88;;
62832;SDS011;48891;49.220;6.920;2023-04-03T07:08:25;7.70;;;5.45;;
62832;SDS011;48891;49.220;6.920;2023-04-03T07:10:50;8.38;;;5.63;;
62832;SDS011;48891;49.220;6.920;2023-04-03T07:13:15;8.05;;;5.70;;
62832;SDS011;48891;49.220;6.920;2023-04-03T07:15:40;6.35;;;4.85;;
62832;SDS011;48891;49.220;6.920;2023-04-03T07:18:05;7.63;;;5.63;;
62832;SDS011;48891;49.220;6.920;2023-04-03T07:20:30;7.97;;;5.45;;
62832;SDS011;48891;49.220;6.920;2023-04-03T07:22:55;8.47;;;5.40;;
62832;SDS011;48891;49.220;6.920;2023-04-03T07:25:20;8.27;;;5.43;;
62832;SDS011;48891;49.220;6.920;2023-04-03T07:27:46;7.55;;;5.32;;
62832;SDS011;48891;49.220;6.920;2023-04-03T07:30:11;8.18;;;5.60;;
62832;SDS011;48891;49.220;6.920;2023-04-03T07:32:36;8.35;;;5.68;;
62832;SDS011;48891;49.220;6.920;2023-04-03T07:35:01;7.35;;;4.90;;
62832;SDS011;48891;49.220;6.920;2023-04-03T07:37:26;7.70;;;5.33;;
62832;SDS011;48891;49.220;6.920;2023-04-03T07:39:51;7.72;;;5.15;;
62832;SDS011;48891;49.220;6.920;2023-04-03T07:42:17;5.93;;;4.70;;
62832;SDS011;48891;49.220;6.920;2023-04-03T07:44:42;6.80;;;4.78;;
62832;SDS011;48891;49.220;6.920;2023-04-03T07:47:07;8.65;;;5.20;;
62832;SDS011;48891;49.220;6.920;2023-04-03T07:49:32;8.32;;;4.95;;
62832;SDS011;48891;49.220;6.920;2023-04-03T07:51:57;7.70;;;5.28;;
62832;SDS011;48891;49.220;6.920;2023-04-03T07:54:22;7.97;;;5.15;;
62832;SDS011;48891;49.220;6.920;2023-04-03T07:56:47;6.47;;;4.90;;
62832;SDS011;48891;49.220;6.920;2023-04-03T07:59:12;7.80;;;5.10;;
62832;SDS011;48891;49.220;6.920;2023-04-03T08:01:38;7.07;;;4.93;;
62832;SDS011;48891;49.220;6.920;2023-04-03T08:04:03;6.75;;;4.70;;
62832;SDS011;48891;49.220;6.920;2023-04-03T08:06:28;7.53;;;4.67;;
62832;SDS011;48891;49.220;6.920;2023-04-03T08:08:53;6.28;;;4.35;;
62832;SDS011;48891;49.220;6.920;2023-04-03T08:11:18;9.05;;;5.20;;
62832;SDS011;48891;49.220;6.920;2023-04-03T08:13:43;6.22;;;4.35;;
62832;SDS011;48891;49.220;6.920;2023-04-03T08:16:12;7.40;;;4.90;;
62832;SDS011;48891;49.220;6.920;2023-04-03T08:18:38;6.22;;;4.60;;
62832;SDS011;48891;49.220;6.920;2023-04-03T08:21:07;6.70;;;4.57;;
62832;SDS011;48891;49.220;6.920;2023-04-03T08:23:32;8.88;;;5.10;;
62832;SDS011;48891;49.220;6.920;2023-04-03T08:25:57;6.88;;;4.50;;
62832;SDS011;48891;49.220;6.920;2023-04-03T08:28:22;7.63;;;4.93;;
62832;SDS011;48891;49.220;6.920;2023-04-03T08:30:47;8.55;;;4.93;;
62832;SDS011;48891;49.220;6.920;2023-04-03T08:33:13;6.50;;;4.93;;
62832;SDS011;48891;49.220;6.920;2023-04-03T08:35:41;6.80;;;4.53;;
62832;SDS011;48891;49.220;6.920;2023-04-03T08:40:31;6.30;;;4.40;;
62832;SDS011;48891;49.220;6.920;2023-04-03T08:48:05;6.25;;;4.68;;
62832;SDS011;48891;49.220;6.920;2023-04-03T08:50:36;6.63;;;4.20;;
62832;SDS011;48891;49.220;6.920;2023-04-03T08:53:02;7.28;;;4.15;;
62832;SDS011;48891;49.220;6.920;2023-04-03T08:55:29;7.68;;;4.60;;
62832;SDS011;48891;49.220;6.920;2023-04-03T08:58:00;6.45;;;3.88;;
62832;SDS011;48891;49.220;6.920;2023-04-03T09:00:26;7.00;;;4.00;;
62832;SDS011;48891;49.220;6.920;2023-04-03T09:02:55;6.77;;;4.30;;
62832;SDS011;48891;49.220;6.920;2023-04-03T09:05:27;6.60;;;4.43;;
62832;SDS011;48891;49.220;6.920;2023-04-03T09:07:57;7.72;;;4.93;;
62832;SDS011;48891;49.220;6.920;2023-04-03T09:10:24;7.95;;;4.75;;
62832;SDS011;48891;49.220;6.920;2023-04-03T09:15:35;6.63;;;4.63;;
62832;SDS011;48891;49.220;6.920;2023-04-03T09:23:12;7.07;;;4.50;;
62832;SDS011;48891;49.220;6.920;2023-04-03T09:25:39;6.95;;;4.38;;
62832;SDS011;48891;49.220;6.920;2023-04-03T09:28:04;6.17;;;4.80;;
62832;SDS011;48891;49.220;6.920;2023-04-03T09:30:29;7.83;;;5.10;;
62832;SDS011;48891;49.220;6.920;2023-04-03T09:32:55;9.07;;;5.20;;
62832;SDS011;48891;49.220;6.920;2023-04-03T09:35:31;6.82;;;4.57;;
62832;SDS011;48891;49.220;6.920;2023-04-03T09:38:01;6.82;;;4.68;;
62832;SDS011;48891;49.220;6.920;2023-04-03T09:42:52;7.85;;;5.60;;
62832;SDS011;48891;49.220;6.920;2023-04-03T09:45:25;7.07;;;5.22;;
62832;SDS011;48891;49.220;6.920;2023-04-03T09:48:03;6.38;;;4.80;;
62832;SDS011;48891;49.220;6.920;2023-04-03T09:50:28;6.78;;;4.53;;
62832;SDS011;48891;49.220;6.920;2023-04-03T09:52:54;7.32;;;4.85;;
62832;SDS011;48891;49.220;6.920;2023-04-03T09:55:23;7.00;;;4.83;;
62832;SDS011;48891;49.220;6.920;2023-04-03T09:57:48;6.65;;;4.95;;
62832;SDS011;48891;49.220;6.920;2023-04-03T10:00:23;7.00;;;5.47;;
62832;SDS011;48891;49.220;6.920;2023-04-03T10:02:55;7.80;;;4.80;;
62832;SDS011;48891;49.220;6.920;2023-04-03T10:07:51;7.82;;;5.07;;
62832;SDS011;48891;49.220;6.920;2023-04-03T10:10:20;8.17;;;5.37;;
62832;SDS011;48891;49.220;6.920;2023-04-03T10:12:47;7.57;;;5.07;;
62832;SDS011;48891;49.220;6.920;2023-04-03T10:15:13;9.15;;;5.00;;
62832;SDS011;48891;49.220;6.920;2023-04-03T10:17:58;9.85;;;5.57;;
62832;SDS011;48891;49.220;6.920;2023-04-03T10:25:33;7.88;;;5.47;;
62832;SDS011;48891;49.220;6.920;2023-04-03T10:28:02;8.07;;;5.50;;
62832;SDS011;48891;49.220;6.920;2023-04-03T10:33:20;8.05;;;5.68;;
62832;SDS011;48891;49.220;6.920;2023-04-03T10:41:09;7.47;;;5.50;;
62832;SDS011;48891;49.220;6.920;2023-04-03T10:43:44;7.20;;;5.20;;
62832;SDS011;48891;49.220;6.920;2023-04-03T10:48:53;8.80;;;5.93;;
62832;SDS011;48891;49.220;6.920;2023-04-03T10:51:30;8.75;;;6.13;;
62832;SDS011;48891;49.220;6.920;2023-04-03T10:54:05;8.70;;;6.00;;
62832;SDS011;48891;49.220;6.920;2023-04-03T10:56:48;7.93;;;5.43;;
62832;SDS011;48891;49.220;6.920;2023-04-03T10:59:18;8.35;;;5.50;;
62832;SDS011;48891;49.220;6.920;2023-04-03T11:01:44;8.35;;;5.65;;
62832;SDS011;48891;49.220;6.920;2023-04-03T11:04:10;8.43;;;5.78;;
62832;SDS011;48891;49.220;6.920;2023-04-03T11:06:37;8.75;;;5.97;;
62832;SDS011;48891;49.220;6.920;2023-04-03T11:11:36;7.65;;;6.03;;
62832;SDS011;48891;49.220;6.920;2023-04-03T11:14:14;8.25;;;5.90;;
62832;SDS011;48891;49.220;6.920;2023-04-03T11:16:45;7.88;;;6.10;;
62832;SDS011;48891;49.220;6.920;2023-04-03T11:19:13;7.15;;;5.72;;
62832;SDS011;48891;49.220;6.920;2023-04-03T11:21:40;9.23;;;6.15;;
62832;SDS011;48891;49.220;6.920;2023-04-03T11:24:11;8.80;;;6.43;;
62832;SDS011;48891;49.220;6.920;2023-04-03T11:26:40;6.93;;;5.75;;
62832;SDS011;48891;49.220;6.920;2023-04-03T11:29:08;7.97;;;5.90;;
62832;SDS011;48891;49.220;6.920;2023-04-03T11:36:47;8.35;;;5.78;;
62832;SDS011;48891;49.220;6.920;2023-04-03T11:41:46;7.43;;;5.70;;
62832;SDS011;48891;49.220;6.920;2023-04-03T11:44:32;8.18;;;6.18;;
62832;SDS011;48891;49.220;6.920;2023-04-03T11:46:58;8.05;;;6.55;;
62832;SDS011;48891;49.220;6.920;2023-04-03T11:52:11;8.20;;;6.55;;
62832;SDS011;48891;49.220;6.920;2023-04-03T11:57:22;8.27;;;6.13;;
62832;SDS011;48891;49.220;6.920;2023-04-03T11:59:46;7.95;;;5.75;;
62832;SDS011;48891;49.220;6.920;2023-04-03T12:07:39;8.75;;;6.65;;
62832;SDS011;48891;49.220;6.920;2023-04-03T12:10:13;7.93;;;5.72;;
62832;SDS011;48891;49.220;6.920;2023-04-03T12:12:39;8.05;;;6.60;;
62832;SDS011;48891;49.220;6.920;2023-04-03T12:17:48;7.63;;;6.53;;
62832;SDS011;48891;49.220;6.920;2023-04-03T12:23:07;8.38;;;6.65;;
62832;SDS011;48891;49.220;6.920;2023-04-03T12:28:27;9.07;;;6.03;;
62832;SDS011;48891;49.220;6.920;2023-04-03T12:30:53;9.38;;;6.72;;
62832;SDS011;48891;49.220;6.920;2023-04-03T12:38:36;8.63;;;6.60;;
62832;SDS011;48891;49.220;6.920;2023-04-03T12:43:53;8.45;;;6.30;;
62832;SDS011;48891;49.220;6.920;2023-04-03T12:46:22;7.63;;;6.82;;
62832;SDS011;48891;49.220;6.920;2023-04-03T12:48:49;9.35;;;6.90;;
62832;SDS011;48891;49.220;6.920;2023-04-03T12:51:15;8.10;;;6.88;;
62832;SDS011;48891;49.220;6.920;2023-04-03T12:53:41;8.88;;;7.72;;
62832;SDS011;48891;49.220;6.920;2023-04-03T12:58:48;9.65;;;7.28;;
62832;SDS011;48891;49.220;6.920;2023-04-03T13:01:14;10.40;;;7.22;;
62832;SDS011;48891;49.220;6.920;2023-04-03T13:03:43;9.32;;;7.10;;
62832;SDS011;48891;49.220;6.920;2023-04-03T13:06:22;8.95;;;7.82;;
62832;SDS011;48891;49.220;6.920;2023-04-03T13:08:52;9.10;;;7.55;;
62832;SDS011;48891;49.220;6.920;2023-04-03T13:11:17;8.55;;;6.95;;
62832;SDS011;48891;49.220;6.920;2023-04-03T13:13:54;10.73;;;7.80;;
62832;SDS011;48891;49.220;6.920;2023-04-03T13:16:19;10.20;;;7.68;;
62832;SDS011;48891;49.220;6.920;2023-04-03T13:18:44;9.65;;;8.18;;
62832;SDS011;48891;49.220;6.920;2023-04-03T13:21:15;9.88;;;8.35;;
62832;SDS011;48891;49.220;6.920;2023-04-03T13:23:42;10.38;;;8.13;;
62832;SDS011;48891;49.220;6.920;2023-04-03T13:26:09;9.95;;;8.35;;
62832;SDS011;48891;49.220;6.920;2023-04-03T13:28:34;10.68;;;7.95;;
62832;SDS011;48891;49.220;6.920;2023-04-03T13:33:32;9.98;;;7.95;;
62832;SDS011;48891;49.220;6.920;2023-04-03T13:38:29;10.10;;;7.97;;
62832;SDS011;48891;49.220;6.920;2023-04-03T13:40:56;10.23;;;8.50;;
62832;SDS011;48891;49.220;6.920;2023-04-03T13:43:23;11.10;;;8.30;;
62832;SDS011;48891;49.220;6.920;2023-04-03T13:48:20;10.60;;;8.80;;
62832;SDS011;48891;49.220;6.920;2023-04-03T13:50:56;9.10;;;8.15;;
62832;SDS011;48891;49.220;6.920;2023-04-03T13:53:22;10.43;;;8.77;;
62832;SDS011;48891;49.220;6.920;2023-04-03T13:55:55;9.93;;;8.60;;
62832;SDS011;48891;49.220;6.920;2023-04-03T13:58:25;10.95;;;8.90;;
62832;SDS011;48891;49.220;6.920;2023-04-03T14:01:01;9.70;;;8.35;;
62832;SDS011;48891;49.220;6.920;2023-04-03T14:05:52;10.20;;;9.18;;
62832;SDS011;48891;49.220;6.920;2023-04-03T14:08:18;11.13;;;9.30;;
62832;SDS011;48891;49.220;6.920;2023-04-03T14:10:43;11.30;;;9.73;;
62832;SDS011;48891;49.220;6.920;2023-04-03T14:13:12;11.00;;;9.70;;
62832;SDS011;48891;49.220;6.920;2023-04-03T14:15:38;12.73;;;10.63;;
62832;SDS011;48891;49.220;6.920;2023-04-03T14:18:03;12.57;;;9.88;;
62832;SDS011;48891;49.220;6.920;2023-04-03T14:20:28;11.77;;;9.50;;
62832;SDS011;48891;49.220;6.920;2023-04-03T14:22:54;12.27;;;10.13;;
62832;SDS011;48891;49.220;6.920;2023-04-03T14:25:19;12.55;;;10.38;;
62832;SDS011;48891;49.220;6.920;2023-04-03T14:27:45;11.75;;;10.30;;
62832;SDS011;48891;49.220;6.920;2023-04-03T14:30:19;13.05;;;11.13;;
62832;SDS011;48891;49.220;6.920;2023-04-03T14:32:44;13.93;;;10.52;;
62832;SDS011;48891;49.220;6.920;2023-04-03T14:35:10;13.98;;;11.65;;
62832;SDS011;48891;49.220;6.920;2023-04-03T14:37:35;15.88;;;12.38;;
62832;SDS011;48891;49.220;6.920;2023-04-03T14:40:01;15.00;;;11.90;;
62832;SDS011;48891;49.220;6.920;2023-04-03T14:42:28;13.63;;;11.63;;
62832;SDS011;48891;49.220;6.920;2023-04-03T14:44:53;14.65;;;11.52;;
62832;SDS011;48891;49.220;6.920;2023-04-03T14:47:20;13.85;;;11.80;;
62832;SDS011;48891;49.220;6.920;2023-04-03T14:49:45;13.73;;;11.68;;
62832;SDS011;48891;49.220;6.920;2023-04-03T14:54:55;15.68;;;12.23;;
62832;SDS011;48891;49.220;6.920;2023-04-03T14:57:20;14.20;;;12.48;;
62832;SDS011;48891;49.220;6.920;2023-04-03T14:59:46;14.98;;;13.13;;
62832;SDS011;48891;49.220;6.920;2023-04-03T15:02:28;14.93;;;13.03;;
62832;SDS011;48891;49.220;6.920;2023-04-03T15:04:54;16.27;;;13.43;;
62832;SDS011;48891;49.220;6.920;2023-04-03T15:07:20;14.68;;;12.50;;
62832;SDS011;48891;49.220;6.920;2023-04-03T15:09:45;16.90;;;13.87;;
62832;SDS011;48891;49.220;6.920;2023-04-03T15:12:10;16.77;;;13.80;;
62832;SDS011;48891;49.220;6.920;2023-04-03T15:14:35;17.02;;;13.55;;
62832;SDS011;48891;49.220;6.920;2023-04-03T15:17:00;16.52;;;14.00;;
62832;SDS011;48891;49.220;6.920;2023-04-03T15:19:26;16.10;;;13.80;;
62832;SDS011;48891;49.220;6.920;2023-04-03T15:21:51;17.33;;;14.80;;
62832;SDS011;48891;49.220;6.920;2023-04-03T15:24:16;17.45;;;14.40;;
62832;SDS011;48891;49.220;6.920;2023-04-03T15:26:41;16.83;;;14.07;;
62832;SDS011;48891;49.220;6.920;2023-04-03T15:29:06;18.15;;;14.80;;
62832;SDS011;48891;49.220;6.920;2023-04-03T15:31:31;17.53;;;14.63;;
62832;SDS011;48891;49.220;6.920;2023-04-03T15:33:56;17.83;;;15.07;;
62832;SDS011;48891;49.220;6.920;2023-04-03T15:36:22;17.52;;;15.48;;
62832;SDS011;48891;49.220;6.920;2023-04-03T15:38:47;17.98;;;15.18;;
62832;SDS011;48891;49.220;6.920;2023-04-03T15:41:12;18.25;;;14.95;;
62832;SDS011;48891;49.220;6.920;2023-04-03T15:43:37;16.63;;;14.83;;
62832;SDS011;48891;49.220;6.920;2023-04-03T15:46:02;19.55;;;15.82;;
62832;SDS011;48891;49.220;6.920;2023-04-03T15:48:27;19.37;;;15.93;;
62832;SDS011;48891;49.220;6.920;2023-04-03T15:50:53;19.17;;;16.00;;
62832;SDS011;48891;49.220;6.920;2023-04-03T15:53:18;19.20;;;16.83;;
62832;SDS011;48891;49.220;6.920;2023-04-03T15:55:43;19.08;;;15.85;;
62832;SDS011;48891;49.220;6.920;2023-04-03T15:58:09;17.70;;;15.83;;
62832;SDS011;48891;49.220;6.920;2023-04-03T16:00:34;18.98;;;16.15;;
62832;SDS011;48891;49.220;6.920;2023-04-03T16:03:01;20.30;;;16.95;;
62832;SDS011;48891;49.220;6.920;2023-04-03T16:05:29;21.10;;;17.33;;
62832;SDS011;48891;49.220;6.920;2023-04-03T16:07:54;22.73;;;18.57;;
62832;SDS011;48891;49.220;6.920;2023-04-03T16:10:19;20.75;;;17.17;;
62832;SDS011;48891;49.220;6.920;2023-04-03T16:12:44;21.80;;;17.60;;